Hauptseite
METAR-TAF:

METAR-TAF

Flughäfen :

Corumbá, Mato Grosso do Sul, Brasilien

Breite: 19-05S, Länge: 057-30W, Höhe: 130 m

Beobachtung

Neuester Wetterbericht von vor 43 Minuten, um 21:00 UTC
Wind 8 kt aus Ost
Temperatur 30°C
Luftfeuchtigkeit 49%
Luftdruck 1014 hPa
Sichtweite 10 km oder mehr
keine Wolken unter 1500 m und keine Kumulonimbus oder Gewitterwolken

METAR: SBCR 162100Z 08008KT CAVOK 30/18 Q1014

Zeit: 17:43 (21:43 UTC)

Prognose

Neuester Wetterbericht von vor 6 Stunden und 43 Minuten, um 15:00 UTC
Gültige Prognose vom 16 um 18 UTC bis 17 um 18 UTC
Wind 6 kt aus Nordost
Sichtweite 10 km oder mehr
keine Wolken unter 1500 m und keine Kumulonimbus oder Gewitterwolken
Übergehend zu
vom 16 um 22 UTC bis 16 um 24 UTC
Wind 5 kt aus Ost

TAF: SBCR 161500Z 1618/1718 05006KT CAVOK TX30/1618Z TN21/1709Z BECMG 1622/1624 10005KT RMK PCO

Wetterbeobachtungen und Prognosen von mehr als 4000 Flughäfen (METAR und TAF Bericht).

Die verfügbaren Stationen werden durch gelbe und rote Markierungen auf der Karte dargestellt.

Führen Sie die Maus auf sie, um den Namen der Station zu sehen.

Darauf klicken, um die Beobachtung von Wetterbeobachtungen und Prognosen zu sehen.

Um die Karte zu ändern : klicken Sie auf den grünen Tasten mit einem schwarzen Kreuz Zum Vergrößern, auf den grünen Button mit einem Gedankenstrich zu verkleinern, oder auf die grünen Pfeile für benachbarte Karten.


METAR-TAF: